createdAt,value
2018-07-02T00:00:16.389Z,50.5
2018-07-02T00:01:16.900Z,50.6
2018-07-02T00:02:16.626Z,50.8
2018-07-02T00:03:16.945Z,50.9
2018-07-02T00:04:16.300Z,51.2
2018-07-02T00:05:16.628Z,51.3
2018-07-02T00:06:16.914Z,51.1
2018-07-02T00:07:17.295Z,51.1
2018-07-02T00:08:16.623Z,51.3
2018-07-02T00:09:16.937Z,51.2
2018-07-02T00:10:17.687Z,51.4
2018-07-02T00:11:16.331Z,52.0
2018-07-02T00:12:16.669Z,52.3
2018-07-02T00:13:16.989Z,52.2
2018-07-02T00:14:16.686Z,52.6
2018-07-02T00:15:16.399Z,52.5
2018-07-02T00:16:16.735Z,52.8
2018-07-02T00:17:17.204Z,52.8
2018-07-02T00:18:16.535Z,53.0
2018-07-02T00:19:16.865Z,52.9
2018-07-02T00:20:17.199Z,52.9
2018-07-02T00:21:17.283Z,53.0
2018-07-02T00:22:16.654Z,53.2
2018-07-02T00:23:16.987Z,53.6
2018-07-02T00:24:16.270Z,53.5
2018-07-02T00:25:16.563Z,53.5
2018-07-02T00:26:16.862Z,53.6
2018-07-02T00:27:17.221Z,53.7
2018-07-02T00:28:16.525Z,54.0
2018-07-02T00:29:16.851Z,53.9
2018-07-02T00:30:17.176Z,53.9
2018-07-02T00:31:17.237Z,53.8
2018-07-02T00:32:16.527Z,54.0
2018-07-02T00:33:16.834Z,54.5
2018-07-02T00:34:17.168Z,54.5
2018-07-02T00:35:16.495Z,54.5
2018-07-02T00:36:17.154Z,54.5
2018-07-02T00:37:16.471Z,54.3
2018-07-02T00:38:17.288Z,54.5
2018-07-02T00:39:17.131Z,54.5
2018-07-02T00:40:16.471Z,54.6
2018-07-02T00:41:16.497Z,54.5
2018-07-02T00:42:16.800Z,54.7
2018-07-02T00:43:17.633Z,54.5
2018-07-02T00:44:17.095Z,55.0
2018-07-02T00:45:16.421Z,54.6
2018-07-02T00:46:16.738Z,54.5
2018-07-02T00:47:17.504Z,54.0
2018-07-02T00:48:17.259Z,54.1
2018-07-02T00:49:16.600Z,54.1
2018-07-02T00:50:16.941Z,54.3
2018-07-02T00:51:17.016Z,54.8
2018-07-02T00:52:16.321Z,54.8
2018-07-02T00:53:17.183Z,55.4
2018-07-02T00:54:17.014Z,55.0
2018-07-02T00:55:16.334Z,54.6
2018-07-02T00:56:16.636Z,54.7
2018-07-02T00:57:16.972Z,55.2
2018-07-02T00:58:16.287Z,55.0
2018-07-02T00:59:16.622Z,55.1
2018-07-02T01:00:17.586Z,55.2
2018-07-02T01:01:17.007Z,55.4
2018-07-02T01:02:16.332Z,55.4
2018-07-02T01:03:17.497Z,55.8
2018-07-02T01:04:16.443Z,55.8
2018-07-02T01:05:16.739Z,55.9
2018-07-02T01:06:17.068Z,55.6
2018-07-02T01:07:16.404Z,55.1
2018-07-02T01:08:16.728Z,54.9
2018-07-02T01:09:17.044Z,55.5
2018-07-02T01:10:16.736Z,55.8
2018-07-02T01:11:16.396Z,55.9
2018-07-02T01:12:16.756Z,56.4
2018-07-02T01:13:17.570Z,56.3
2018-07-02T01:14:17.245Z,56.5
2018-07-02T01:15:16.585Z,56.2
2018-07-02T01:16:16.896Z,56.5
2018-07-02T01:17:17.230Z,56.6
2018-07-02T01:18:16.544Z,56.5
2018-07-02T01:19:16.866Z,56.8
2018-07-02T01:20:17.194Z,56.8
2018-07-02T01:21:16.275Z,56.9
2018-07-02T01:22:16.621Z,57.1
2018-07-02T01:23:17.256Z,56.8
2018-07-02T01:24:16.962Z,57.3
2018-07-02T01:25:16.295Z,57.6
2018-07-02T01:26:17.236Z,58.3
2018-07-02T01:27:17.030Z,57.9
2018-07-02T01:28:16.369Z,57.9
2018-07-02T01:29:17.347Z,59.1
2018-07-02T01:30:17.281Z,59.5
2018-07-02T01:31:16.312Z,60.7
2018-07-02T01:32:16.651Z,60.6
2018-07-02T01:33:16.979Z,60.0
2018-07-02T01:34:16.957Z,59.8
2018-07-02T01:35:16.917Z,60.0
2018-07-02T01:36:17.226Z,61.0
2018-07-02T01:37:16.562Z,61.0
2018-07-02T01:38:16.877Z,60.5
2018-07-02T01:39:17.753Z,60.5
2018-07-02T01:40:16.692Z,60.2
2018-07-02T01:41:17.329Z,60.1
2018-07-02T01:42:17.003Z,60.0
2018-07-02T01:43:16.319Z,60.2
2018-07-02T01:44:16.644Z,60.2
2018-07-02T01:45:16.941Z,60.8
2018-07-02T01:46:17.288Z,61.5
2018-07-02T01:47:16.593Z,61.5
2018-07-02T01:48:17.311Z,61.4
2018-07-02T01:49:17.069Z,61.8
2018-07-02T01:50:16.373Z,61.8
2018-07-02T01:51:17.033Z,61.7
2018-07-02T01:52:16.846Z,61.8
2018-07-02T01:53:17.170Z,61.6
2018-07-02T01:54:17.008Z,61.8
2018-07-02T01:55:16.952Z,61.8
2018-07-02T01:56:17.256Z,61.8
2018-07-02T01:57:16.603Z,61.7
2018-07-02T01:58:17.369Z,62.0
2018-07-02T01:59:17.092Z,61.9
2018-07-02T02:00:16.387Z,61.8
2018-07-02T02:01:16.449Z,61.3
2018-07-02T02:02:17.212Z,62.3
2018-07-02T02:03:16.777Z,62.8
2018-07-02T02:04:17.083Z,62.9
2018-07-02T02:05:16.393Z,63.2
2018-07-02T02:06:17.209Z,63.4
2018-07-02T02:07:17.061Z,63.5
2018-07-02T02:08:16.358Z,63.8
2018-07-02T02:09:16.649Z,63.9
2018-07-02T02:10:17.491Z,63.9
2018-07-02T02:11:16.990Z,63.5
2018-07-02T02:12:16.296Z,63.5
2018-07-02T02:13:16.613Z,63.5
2018-07-02T02:14:17.602Z,63.5
2018-07-02T02:15:16.453Z,63.5
2018-07-02T02:16:16.726Z,63.9
2018-07-02T02:17:17.037Z,63.5
2018-07-02T02:18:16.525Z,63.5
2018-07-02T02:19:16.290Z,63.7
2018-07-02T02:20:16.625Z,63.9
2018-07-02T02:21:16.642Z,64.2
2018-07-02T02:22:16.930Z,64.8
2018-07-02T02:23:17.246Z,65.0
2018-07-02T02:24:16.555Z,65.0
2018-07-02T02:25:16.841Z,65.0
2018-07-02T02:26:17.146Z,64.8
2018-07-02T02:27:17.011Z,64.8
2018-07-02T02:28:16.847Z,64.8
2018-07-02T02:29:17.131Z,64.5
2018-07-02T02:30:16.448Z,64.5
2018-07-02T02:31:17.005Z,64.6
2018-07-02T02:32:16.860Z,64.5
2018-07-02T02:33:17.183Z,64.5
2018-07-02T02:34:16.478Z,64.3
2018-07-02T02:35:17.191Z,64.5
2018-07-02T02:36:16.905Z,64.6
2018-07-02T02:37:17.205Z,65.5
2018-07-02T02:38:16.693Z,67.6
2018-07-02T02:39:17.655Z,68.0
2018-07-02T02:40:16.518Z,67.4
2018-07-02T02:41:16.568Z,67.2
2018-07-02T02:42:16.859Z,67.2
2018-07-02T02:43:17.838Z,67.3
2018-07-02T02:44:16.669Z,67.3
2018-07-02T02:45:16.980Z,66.8
2018-07-02T02:46:16.286Z,66.8
2018-07-02T02:47:17.065Z,66.5
2018-07-02T02:48:16.907Z,66.7
2018-07-02T02:49:17.219Z,66.1
2018-07-02T02:50:16.529Z,66.2
2018-07-02T02:51:16.995Z,65.6
2018-07-02T02:52:16.720Z,65.0
2018-07-02T02:53:17.174Z,64.8
2018-07-02T02:54:16.492Z,64.7
2018-07-02T02:55:17.459Z,64.7
2018-07-02T02:56:16.333Z,64.4
2018-07-02T02:57:16.632Z,64.7
2018-07-02T02:58:16.924Z,65.5
2018-07-02T02:59:17.231Z,66.2
2018-07-02T03:00:16.517Z,65.6
2018-07-02T03:01:16.572Z,65.7
2018-07-02T03:02:16.862Z,65.5
2018-07-02T03:03:17.154Z,65.5
2018-07-02T03:04:16.927Z,65.5
2018-07-02T03:05:16.520Z,65.4
2018-07-02T03:06:16.835Z,65.2
2018-07-02T03:07:17.160Z,65.1
2018-07-02T03:08:16.896Z,65.3
2018-07-02T03:09:16.675Z,65.5
2018-07-02T03:10:16.986Z,65.7
2018-07-02T03:11:17.027Z,65.8
2018-07-02T03:12:16.319Z,65.9
2018-07-02T03:13:16.618Z,66.0
2018-07-02T03:14:16.926Z,66.1
2018-07-02T03:15:17.253Z,66.0
2018-07-02T03:16:16.535Z,66.2
2018-07-02T03:17:17.383Z,66.3
2018-07-02T03:18:17.038Z,66.3
2018-07-02T03:19:16.347Z,66.6
2018-07-02T03:20:16.740Z,66.3
2018-07-02T03:21:17.333Z,66.6
2018-07-02T03:22:17.273Z,66.5
2018-07-02T03:23:16.894Z,66.8
2018-07-02T03:24:17.462Z,67.3
2018-07-02T03:25:17.127Z,67.4
2018-07-02T03:26:16.732Z,67.4
2018-07-02T03:27:17.058Z,67.2
2018-07-02T03:28:16.353Z,67.2
2018-07-02T03:29:17.002Z,67.2
2018-07-02T03:30:16.670Z,67.3
2018-07-02T03:31:16.690Z,66.9
2018-07-02T03:32:16.989Z,67.0
2018-07-02T03:33:16.894Z,67.3
2018-07-02T03:34:16.742Z,67.5
2018-07-02T03:35:17.042Z,67.8
2018-07-02T03:36:16.351Z,68.2
2018-07-02T03:37:17.160Z,68.3
2018-07-02T03:38:17.110Z,68.2
2018-07-02T03:39:16.404Z,67.8
2018-07-02T03:40:16.694Z,68.0
2018-07-02T03:41:17.418Z,68.0
2018-07-02T03:42:16.345Z,67.6
2018-07-02T03:43:16.647Z,67.4
2018-07-02T03:44:16.940Z,67.2
2018-07-02T03:45:17.640Z,67.1
2018-07-02T03:46:16.361Z,67.0
2018-07-02T03:47:16.644Z,66.8
2018-07-02T03:48:16.950Z,66.9
2018-07-02T03:49:18.003Z,67.7
2018-07-02T03:50:16.731Z,68.2
2018-07-02T03:51:16.788Z,68.7
2018-07-02T03:52:17.110Z,69.0
2018-07-02T03:53:16.424Z,69.1
2018-07-02T03:54:17.437Z,68.9
2018-07-02T03:55:16.731Z,69.2
2018-07-02T03:56:17.036Z,69.2
2018-07-02T03:57:16.333Z,69.5
2018-07-02T03:58:16.645Z,69.2
2018-07-02T03:59:16.933Z,69.0
2018-07-02T04:00:17.259Z,68.8
2018-07-02T04:01:16.425Z,69.0
2018-07-02T04:02:16.752Z,68.2
2018-07-02T04:03:17.052Z,68.3
2018-07-02T04:04:16.365Z,68.7
2018-07-02T04:05:16.719Z,68.7
2018-07-02T04:06:17.007Z,68.8
2018-07-02T04:07:16.308Z,68.6
2018-07-02T04:08:16.614Z,68.3
2018-07-02T04:09:16.924Z,68.6
2018-07-02T04:10:17.502Z,68.6
2018-07-02T04:11:17.254Z,68.6
2018-07-02T04:12:16.545Z,68.5
2018-07-02T04:13:17.359Z,68.5
2018-07-02T04:14:17.037Z,68.3
2018-07-02T04:15:16.351Z,68.0
2018-07-02T04:16:16.668Z,68.0
2018-07-02T04:17:16.986Z,67.9
2018-07-02T04:18:16.883Z,67.5
2018-07-02T04:19:17.424Z,67.2
2018-07-02T04:20:16.266Z,67.0
2018-07-02T04:21:16.841Z,66.8
2018-07-02T04:22:16.522Z,66.7
2018-07-02T04:23:17.360Z,66.5
2018-07-02T04:24:17.474Z,66.3
2018-07-02T04:25:17.325Z,66.3
2018-07-02T04:26:17.563Z,66.2
2018-07-02T04:27:16.873Z,66.1
2018-07-02T04:28:17.506Z,65.8
2018-07-02T04:29:16.334Z,65.5
2018-07-02T04:30:16.951Z,64.8
2018-07-02T04:31:17.223Z,64.8
2018-07-02T04:32:17.077Z,64.3
2018-07-02T04:33:16.369Z,64.2
2018-07-02T04:34:16.843Z,64.0
2018-07-02T04:35:17.811Z,63.9
2018-07-02T04:36:16.730Z,63.9
2018-07-02T04:37:17.025Z,63.8
2018-07-02T04:38:16.323Z,63.2
2018-07-02T04:39:17.173Z,63.2
2018-07-02T04:40:17.031Z,62.8
2018-07-02T04:41:17.081Z,62.0
2018-07-02T04:42:16.385Z,61.9
2018-07-02T04:43:17.171Z,61.4
2018-07-02T04:44:17.519Z,61.0
2018-07-02T04:45:17.055Z,61.0
2018-07-02T04:46:17.535Z,60.6
2018-07-02T04:47:17.706Z,61.0
2018-07-02T04:48:17.368Z,60.6
2018-07-02T04:49:17.868Z,59.6
2018-07-02T04:50:16.969Z,59.5
2018-07-02T04:51:16.842Z,59.5
2018-07-02T04:52:16.919Z,59.1
2018-07-02T04:53:17.022Z,58.6
2018-07-02T04:54:17.153Z,58.5
2018-07-02T04:55:17.677Z,58.2
2018-07-02T04:56:17.045Z,58.0
2018-07-02T04:57:16.795Z,57.9
2018-07-02T04:58:17.476Z,57.6
2018-07-02T04:59:17.608Z,58.0
2018-07-02T05:00:16.456Z,57.4
2018-07-02T05:01:16.534Z,57.4
2018-07-02T05:02:16.797Z,57.8
2018-07-02T05:03:17.061Z,57.6
2018-07-02T05:04:16.319Z,56.7
2018-07-02T05:05:16.589Z,56.6
2018-07-02T05:06:16.855Z,56.9
2018-07-02T05:07:17.112Z,56.0
2018-07-02T05:08:16.370Z,56.4
2018-07-02T05:09:16.638Z,56.1
2018-07-02T05:10:16.907Z,56.2
2018-07-02T05:11:16.953Z,55.2
2018-07-02T05:12:17.217Z,55.5
2018-07-02T05:13:16.484Z,55.3
2018-07-02T05:14:16.755Z,54.2
2018-07-02T05:15:17.038Z,53.3
2018-07-02T05:16:16.326Z,53.0
2018-07-02T05:17:16.598Z,53.0
2018-07-02T05:18:16.858Z,53.2
2018-07-02T05:19:17.123Z,53.3
2018-07-02T05:20:16.390Z,52.7
2018-07-02T05:21:16.436Z,52.2
2018-07-02T05:22:16.692Z,52.1
2018-07-02T05:23:16.956Z,51.0
2018-07-02T05:24:17.217Z,52.4
2018-07-02T05:25:16.481Z,51.5
2018-07-02T05:26:16.741Z,51.7
2018-07-02T05:27:17.003Z,51.9
2018-07-02T05:28:16.265Z,52.4
2018-07-02T05:29:16.530Z,51.9
2018-07-02T05:30:17.125Z,52.5
2018-07-02T05:31:16.847Z,54.0
2018-07-02T05:32:17.105Z,51.8
2018-07-02T05:33:16.368Z,51.5
2018-07-02T05:34:16.628Z,50.4
2018-07-02T05:35:16.911Z,50.1
2018-07-02T05:36:17.198Z,49.1
2018-07-02T05:37:16.464Z,49.1
2018-07-02T05:38:16.728Z,49.8
2018-07-02T05:39:16.988Z,49.9
2018-07-02T05:40:17.260Z,48.9
2018-07-02T05:41:16.315Z,49.5
2018-07-02T05:42:16.574Z,49.2
2018-07-02T05:43:16.841Z,48.6
2018-07-02T05:44:17.109Z,49.1
2018-07-02T05:45:16.395Z,48.2
2018-07-02T05:46:16.681Z,48.9
2018-07-02T05:47:16.952Z,49.4
2018-07-02T05:48:17.208Z,50.0
2018-07-02T05:49:16.472Z,49.2
2018-07-02T05:50:16.743Z,49.5
2018-07-02T05:51:16.798Z,49.4
2018-07-02T05:52:17.074Z,50.0
2018-07-02T05:53:16.342Z,48.5
2018-07-02T05:54:16.620Z,47.6
2018-07-02T05:55:16.882Z,48.2
2018-07-02T05:56:17.152Z,49.9
2018-07-02T05:57:16.416Z,48.0
2018-07-02T05:58:16.679Z,47.4
2018-07-02T05:59:16.947Z,47.5
2018-07-02T06:00:17.351Z,47.0
2018-07-02T06:01:16.274Z,47.0
2018-07-02T06:02:16.553Z,46.8
2018-07-02T06:03:16.811Z,47.8
2018-07-02T06:04:17.079Z,47.3
2018-07-02T06:05:16.344Z,47.2
2018-07-02T06:06:16.612Z,48.3
2018-07-02T06:07:16.870Z,48.0
2018-07-02T06:08:17.143Z,47.8
2018-07-02T06:09:16.411Z,48.8
2018-07-02T06:10:16.676Z,45.9
2018-07-02T06:11:16.736Z,45.9
2018-07-02T06:12:16.993Z,47.5
2018-07-02T06:13:16.317Z,47.6
2018-07-02T06:14:16.675Z,46.0
2018-07-02T06:15:16.943Z,45.4
2018-07-02T06:16:17.208Z,45.3
2018-07-02T06:17:16.487Z,45.1
2018-07-02T06:18:16.813Z,47.2
2018-07-02T06:19:17.071Z,45.0
2018-07-02T06:20:16.337Z,44.4
2018-07-02T06:21:16.390Z,44.8
2018-07-02T06:22:16.914Z,44.6
2018-07-02T06:23:17.184Z,46.7
2018-07-02T06:24:16.448Z,47.0
2018-07-02T06:25:16.733Z,46.0
2018-07-02T06:26:16.992Z,46.4
2018-07-02T06:27:16.238Z,44.3
2018-07-02T06:28:16.500Z,45.0
2018-07-02T06:29:16.771Z,46.6
2018-07-02T06:30:17.060Z,45.8
2018-07-02T06:31:17.082Z,46.0
2018-07-02T06:32:16.344Z,44.2
2018-07-02T06:33:16.608Z,44.0
2018-07-02T06:34:16.896Z,44.1
2018-07-02T06:35:17.161Z,43.8
2018-07-02T06:36:16.421Z,44.5
2018-07-02T06:37:16.687Z,46.0
2018-07-02T06:38:16.953Z,43.8
2018-07-02T06:39:17.210Z,44.0
2018-07-02T06:40:16.491Z,43.6
2018-07-02T06:41:16.550Z,41.2
2018-07-02T06:42:16.815Z,41.4
2018-07-02T06:43:17.083Z,42.3
2018-07-02T06:44:16.344Z,42.2
2018-07-02T06:45:16.609Z,43.1
2018-07-02T06:46:16.875Z,45.0
2018-07-02T06:47:17.147Z,43.7
2018-07-02T06:48:16.411Z,42.9
2018-07-02T06:49:16.670Z,43.1
2018-07-02T06:50:16.948Z,40.6
2018-07-02T06:51:16.986Z,39.8
2018-07-02T06:52:16.259Z,39.3
2018-07-02T06:53:16.519Z,38.7
2018-07-02T06:54:16.787Z,40.2
2018-07-02T06:55:17.056Z,42.4
2018-07-02T06:56:16.307Z,42.0
2018-07-02T06:57:16.560Z,40.9
2018-07-02T06:58:16.817Z,40.0
2018-07-02T06:59:17.076Z,40.2
2018-07-02T07:00:16.364Z,40.0
2018-07-02T07:01:16.389Z,40.6
2018-07-02T07:02:16.650Z,40.2
2018-07-02T07:03:16.915Z,40.8
2018-07-02T07:04:17.184Z,38.9
2018-07-02T07:05:16.451Z,37.7
2018-07-02T07:06:16.754Z,37.5
2018-07-02T07:07:17.020Z,37.0
2018-07-02T07:08:16.290Z,36.7
2018-07-02T07:09:16.557Z,39.0
2018-07-02T07:10:16.818Z,38.3
2018-07-02T07:11:16.926Z,38.7
2018-07-02T07:12:17.190Z,37.7
2018-07-02T07:13:16.447Z,37.6
2018-07-02T07:14:16.712Z,39.1
2018-07-02T07:15:16.985Z,36.4
2018-07-02T07:16:17.261Z,37.3
2018-07-02T07:17:16.520Z,37.5
2018-07-02T07:18:16.779Z,35.5
2018-07-02T07:19:17.046Z,35.2
2018-07-02T07:20:16.309Z,36.4
2018-07-02T07:21:16.355Z,34.9
2018-07-02T07:22:16.617Z,34.4
2018-07-02T07:23:16.881Z,33.9
2018-07-02T07:24:17.428Z,33.5
2018-07-02T07:25:16.695Z,34.4
2018-07-02T07:26:16.964Z,35.5
2018-07-02T07:27:17.223Z,36.0
2018-07-02T07:28:16.491Z,37.0
2018-07-02T07:29:16.746Z,36.6
2018-07-02T07:30:17.011Z,34.0
2018-07-02T07:31:17.063Z,32.7
2018-07-02T07:32:16.329Z,32.4
2018-07-02T07:33:16.583Z,33.4
2018-07-02T07:34:16.848Z,34.5
2018-07-02T07:35:17.127Z,33.2
2018-07-02T07:36:16.390Z,35.4
2018-07-02T07:37:16.698Z,33.0
2018-07-02T07:38:16.974Z,31.4
2018-07-02T07:39:17.244Z,32.2
2018-07-02T07:40:16.515Z,33.0
2018-07-02T07:41:16.567Z,34.0
2018-07-02T07:42:16.826Z,33.7
2018-07-02T07:43:17.087Z,33.5
2018-07-02T07:44:16.345Z,34.0
2018-07-02T07:45:16.605Z,33.0
2018-07-02T07:46:16.869Z,33.4
2018-07-02T07:47:17.129Z,32.8
2018-07-02T07:48:16.394Z,33.3
2018-07-02T07:49:16.652Z,31.9
2018-07-02T07:50:16.923Z,32.5
2018-07-02T07:51:17.084Z,32.5
2018-07-02T07:52:16.344Z,30.7
2018-07-02T07:53:16.806Z,30.1
2018-07-02T07:54:17.069Z,30.5
2018-07-02T07:55:16.330Z,32.4
2018-07-02T07:56:16.595Z,31.8
2018-07-02T07:57:16.870Z,31.4
2018-07-02T07:58:17.137Z,30.9
2018-07-02T07:59:16.406Z,29.9
2018-07-02T08:00:16.669Z,30.0
2018-07-02T08:01:16.715Z,29.2
2018-07-02T08:02:16.991Z,30.1
2018-07-02T08:03:16.256Z,30.3
2018-07-02T08:04:16.527Z,30.2
2018-07-02T08:05:16.886Z,29.4
2018-07-02T08:06:17.154Z,31.2
2018-07-02T08:07:16.421Z,31.3
2018-07-02T08:08:16.674Z,31.8
2018-07-02T08:09:16.932Z,30.8
2018-07-02T08:10:17.196Z,30.3
2018-07-02T08:11:17.246Z,30.1
2018-07-02T08:12:16.515Z,30.8
2018-07-02T08:13:16.781Z,29.5
2018-07-02T08:14:17.051Z,29.6
2018-07-02T08:15:16.315Z,28.7
2018-07-02T08:16:16.572Z,28.3
2018-07-02T08:17:16.833Z,27.8
2018-07-02T08:18:17.089Z,28.4
2018-07-02T08:19:16.409Z,28.6
2018-07-02T08:20:16.749Z,29.8
2018-07-02T08:21:16.784Z,28.2
2018-07-02T08:22:17.040Z,28.9
2018-07-02T08:23:16.300Z,28.1
2018-07-02T08:24:16.567Z,27.5
2018-07-02T08:25:16.843Z,27.9
2018-07-02T08:26:17.122Z,27.7
2018-07-02T08:27:16.448Z,29.2
2018-07-02T08:28:16.707Z,28.0
2018-07-02T08:29:16.971Z,30.6
2018-07-02T08:30:17.254Z,29.6
2018-07-02T08:31:16.297Z,28.8
2018-07-02T08:32:16.565Z,28.1
2018-07-02T08:33:16.905Z,28.8
2018-07-02T08:34:17.187Z,27.9
2018-07-02T08:35:16.450Z,29.0
2018-07-02T08:36:16.714Z,27.6
2018-07-02T08:37:16.981Z,27.0
2018-07-02T08:38:17.245Z,26.9
2018-07-02T08:39:16.508Z,27.5
2018-07-02T08:40:16.797Z,28.2
2018-07-02T08:41:16.808Z,27.7
2018-07-02T08:42:17.083Z,27.5
2018-07-02T08:43:16.357Z,28.2
2018-07-02T08:44:16.627Z,27.5
2018-07-02T08:45:16.886Z,27.8
2018-07-02T08:46:17.142Z,25.5
2018-07-02T08:47:16.402Z,25.8
2018-07-02T08:48:16.664Z,25.3
2018-07-02T08:49:16.933Z,24.9
2018-07-02T08:50:17.206Z,25.4
2018-07-02T08:51:16.244Z,26.4
2018-07-02T08:52:16.500Z,28.0
2018-07-02T08:53:16.755Z,27.2
2018-07-02T08:54:17.019Z,27.1
2018-07-02T08:55:16.284Z,26.8
2018-07-02T08:56:16.551Z,27.5
2018-07-02T08:57:16.802Z,27.2
2018-07-02T08:58:17.188Z,27.2
2018-07-02T08:59:16.517Z,26.4
2018-07-02T09:00:16.771Z,25.0
2018-07-02T09:01:16.825Z,27.5
2018-07-02T09:02:17.106Z,27.2
2018-07-02T09:03:16.365Z,27.0
2018-07-02T09:04:16.627Z,27.3
2018-07-02T09:05:16.893Z,27.9
2018-07-02T09:06:17.158Z,26.8
2018-07-02T09:07:16.416Z,25.8
2018-07-02T09:08:16.675Z,26.1
2018-07-02T09:09:16.931Z,25.5
2018-07-02T09:10:17.198Z,26.0
2018-07-02T09:11:17.231Z,25.6
2018-07-02T09:12:16.491Z,25.8
2018-07-02T09:13:16.748Z,26.9
2018-07-02T09:14:17.010Z,26.9
2018-07-02T09:15:16.269Z,28.3
2018-07-02T09:16:16.528Z,27.7
2018-07-02T09:17:16.795Z,26.1
2018-07-02T09:18:17.051Z,27.1
2018-07-02T09:19:16.316Z,26.3
2018-07-02T09:20:16.583Z,26.1
2018-07-02T09:21:16.667Z,25.6
2018-07-02T09:22:16.932Z,25.4
2018-07-02T09:23:17.189Z,24.1
2018-07-02T09:24:16.452Z,24.9
2018-07-02T09:25:16.788Z,26.1
2018-07-02T09:26:17.045Z,26.5
2018-07-02T09:27:16.308Z,25.3
2018-07-02T09:28:16.563Z,26.4
2018-07-02T09:29:16.835Z,23.5
2018-07-02T09:30:17.117Z,25.2
2018-07-02T09:31:17.153Z,24.1
2018-07-02T09:32:16.545Z,25.1
2018-07-02T09:33:16.811Z,26.5
2018-07-02T09:34:17.077Z,26.8
2018-07-02T09:35:16.337Z,24.8
2018-07-02T09:36:16.604Z,25.0
2018-07-02T09:37:16.861Z,25.0
2018-07-02T09:38:17.128Z,24.4
2018-07-02T09:39:16.465Z,24.9
2018-07-02T09:40:16.752Z,25.1
2018-07-02T09:41:16.798Z,24.5
2018-07-02T09:42:17.066Z,24.9
2018-07-02T09:43:16.338Z,25.5
2018-07-02T09:44:16.720Z,24.6
2018-07-02T09:45:16.983Z,25.8
2018-07-02T09:46:16.250Z,26.1
2018-07-02T09:47:16.515Z,25.0
2018-07-02T09:48:16.777Z,25.8
2018-07-02T09:49:17.279Z,25.2
2018-07-02T09:50:16.556Z,25.1
2018-07-02T09:51:16.586Z,24.7
2018-07-02T09:52:16.850Z,23.8
2018-07-02T09:53:17.112Z,24.6
2018-07-02T09:54:16.371Z,24.6
2018-07-02T09:55:16.651Z,23.5
2018-07-02T09:56:16.913Z,22.9
2018-07-02T09:57:17.174Z,24.1
2018-07-02T09:58:16.434Z,24.3
2018-07-02T09:59:16.688Z,23.4
2018-07-02T10:00:16.971Z,26.0
2018-07-02T10:01:17.017Z,25.4
2018-07-02T10:02:16.497Z,23.7
2018-07-02T10:03:16.824Z,24.6
2018-07-02T10:04:17.089Z,25.1
2018-07-02T10:05:16.347Z,23.9
2018-07-02T10:06:16.673Z,23.9
2018-07-02T10:07:16.940Z,23.7
2018-07-02T10:08:17.196Z,24.0
2018-07-02T10:09:16.448Z,23.7
2018-07-02T10:10:16.816Z,23.4
2018-07-02T10:11:16.751Z,23.8
2018-07-02T10:12:17.014Z,25.2
2018-07-02T10:13:16.272Z,26.2
2018-07-02T10:14:16.536Z,25.6
2018-07-02T10:15:16.799Z,25.2
2018-07-02T10:16:17.059Z,26.6
2018-07-02T10:17:16.318Z,27.3
2018-07-02T10:18:16.581Z,25.5
2018-07-02T10:19:16.846Z,24.6
2018-07-02T10:20:17.196Z,24.9
2018-07-02T10:21:17.162Z,25.2
2018-07-02T10:22:16.427Z,24.1
2018-07-02T10:23:16.687Z,24.5
2018-07-02T10:24:16.944Z,25.0
2018-07-02T10:25:17.212Z,25.8
2018-07-02T10:26:16.469Z,25.6
2018-07-02T10:27:16.729Z,24.7
2018-07-02T10:28:16.991Z,24.4
2018-07-02T10:29:16.348Z,23.5
2018-07-02T10:30:16.642Z,23.1
2018-07-02T10:31:16.880Z,23.4
2018-07-02T10:32:17.247Z,23.4
2018-07-02T10:33:16.533Z,23.4
2018-07-02T10:34:16.791Z,24.1
2018-07-02T10:35:17.043Z,25.6
2018-07-02T10:36:16.304Z,23.7
2018-07-02T10:37:16.571Z,26.6
2018-07-02T10:38:16.834Z,24.7
2018-07-02T10:39:17.096Z,23.9
2018-07-02T10:40:16.436Z,24.1
2018-07-02T10:41:16.454Z,24.6
2018-07-02T10:42:16.715Z,25.1
2018-07-02T10:43:16.979Z,25.8
2018-07-02T10:44:17.249Z,24.6
2018-07-02T10:45:16.515Z,25.4
2018-07-02T10:46:16.772Z,24.5
2018-07-02T10:47:17.035Z,24.6
2018-07-02T10:48:16.294Z,24.6
2018-07-02T10:49:16.558Z,25.3
2018-07-02T10:50:16.925Z,25.4
2018-07-02T10:51:16.874Z,23.6
2018-07-02T10:52:17.138Z,24.4
2018-07-02T10:53:16.416Z,24.9
2018-07-02T10:54:16.681Z,24.1
2018-07-02T10:55:16.940Z,23.9
2018-07-02T10:56:17.202Z,23.5
2018-07-02T10:57:16.460Z,22.9
2018-07-02T10:58:16.715Z,24.4
2018-07-02T10:59:16.985Z,24.3
2018-07-02T11:00:17.261Z,25.6
2018-07-02T11:01:16.379Z,25.4
2018-07-02T11:02:16.647Z,25.2
2018-07-02T11:03:16.923Z,25.1
2018-07-02T11:04:17.181Z,25.6
2018-07-02T11:05:16.448Z,26.4
2018-07-02T11:06:16.708Z,26.1
2018-07-02T11:07:16.964Z,24.9
2018-07-02T11:08:17.232Z,24.6
2018-07-02T11:09:16.484Z,24.8
2018-07-02T11:10:16.756Z,24.6
2018-07-02T11:11:16.959Z,25.5
2018-07-02T11:12:16.289Z,24.7
2018-07-02T11:13:16.547Z,24.7
2018-07-02T11:14:16.811Z,24.8
2018-07-02T11:15:17.092Z,24.8
2018-07-02T11:16:16.356Z,25.4
2018-07-02T11:17:16.617Z,24.9
2018-07-02T11:18:16.878Z,25.7
2018-07-02T11:19:17.144Z,24.1
2018-07-02T11:20:16.410Z,24.4
2018-07-02T11:21:16.471Z,24.5
2018-07-02T11:22:16.734Z,24.2
2018-07-02T11:23:16.989Z,24.4
2018-07-02T11:24:16.253Z,24.8
2018-07-02T11:25:16.529Z,23.6
2018-07-02T11:26:16.786Z,23.6
2018-07-02T11:27:17.053Z,23.5
2018-07-02T11:28:16.329Z,23.4
2018-07-02T11:29:16.592Z,23.9
2018-07-02T11:30:16.869Z,23.1
2018-07-02T11:31:16.890Z,23.4
2018-07-02T11:32:17.147Z,23.4
2018-07-02T11:33:16.399Z,24.1
2018-07-02T11:34:16.656Z,24.2
2018-07-02T11:35:16.914Z,24.1
2018-07-02T11:36:17.184Z,22.9
2018-07-02T11:37:16.439Z,22.7
2018-07-02T11:38:16.706Z,23.9
2018-07-02T11:39:16.967Z,23.4
2018-07-02T11:40:17.233Z,23.4
2018-07-02T11:41:16.271Z,23.1
2018-07-02T11:42:16.535Z,23.8
2018-07-02T11:43:16.800Z,23.8
2018-07-02T11:44:17.073Z,23.5
2018-07-02T11:45:16.344Z,23.3
2018-07-02T11:46:16.606Z,23.1
2018-07-02T11:47:16.867Z,23.0
2018-07-02T11:48:17.131Z,23.4
2018-07-02T11:49:16.408Z,23.1
2018-07-02T11:50:16.673Z,23.6
2018-07-02T11:51:16.720Z,23.9
2018-07-02T11:52:16.990Z,24.2
2018-07-02T11:53:17.262Z,24.3
2018-07-02T11:54:16.520Z,24.2
2018-07-02T11:55:16.776Z,24.4
2018-07-02T11:56:17.045Z,24.1
2018-07-02T11:57:16.319Z,24.6
2018-07-02T11:58:16.585Z,24.5
2018-07-02T11:59:16.844Z,24.6
2018-07-02T12:00:17.131Z,23.9
2018-07-02T12:01:17.160Z,25.9
2018-07-02T12:02:16.421Z,25.4
2018-07-02T12:03:16.680Z,24.3
2018-07-02T12:04:17.034Z,24.9
2018-07-02T12:05:16.353Z,24.9
2018-07-02T12:06:16.633Z,26.1
2018-07-02T12:07:17.132Z,25.2
2018-07-02T12:08:16.400Z,24.9
2018-07-02T12:09:16.656Z,24.6
2018-07-02T12:10:16.941Z,24.5
2018-07-02T12:11:16.957Z,25.1
2018-07-02T12:12:17.220Z,25.4
2018-07-02T12:13:16.483Z,25.1
2018-07-02T12:14:16.740Z,25.9
2018-07-02T12:15:17.048Z,25.6
2018-07-02T12:16:16.309Z,24.9
2018-07-02T12:17:16.566Z,26.1
2018-07-02T12:18:16.834Z,24.5
2018-07-02T12:19:17.095Z,25.5
2018-07-02T12:20:16.365Z,24.9
2018-07-02T12:21:16.421Z,25.0
2018-07-02T12:22:16.687Z,24.3
2018-07-02T12:23:16.950Z,24.8
2018-07-02T12:24:17.216Z,24.8
2018-07-02T12:25:16.476Z,25.1
2018-07-02T12:26:16.899Z,25.2
2018-07-02T12:27:17.174Z,25.4
2018-07-02T12:28:16.435Z,25.8
2018-07-02T12:29:16.691Z,26.4
2018-07-02T12:30:16.964Z,25.2
2018-07-02T12:31:17.004Z,25.1
2018-07-02T12:32:16.276Z,25.1
2018-07-02T12:33:16.538Z,25.2
2018-07-02T12:34:16.810Z,26.0
2018-07-02T12:35:17.074Z,26.2
2018-07-02T12:36:16.339Z,26.9
2018-07-02T12:37:16.592Z,26.7
2018-07-02T12:38:16.853Z,27.2
2018-07-02T12:39:17.116Z,25.4
2018-07-02T12:40:16.381Z,26.1
2018-07-02T12:41:16.499Z,26.6
2018-07-02T12:42:16.766Z,26.4
2018-07-02T12:43:17.026Z,26.9
2018-07-02T12:44:16.291Z,25.2
2018-07-02T12:45:16.563Z,25.8
2018-07-02T12:46:16.824Z,25.1
2018-07-02T12:47:17.093Z,25.1
2018-07-02T12:48:16.361Z,25.3
2018-07-02T12:49:16.612Z,25.5
2018-07-02T12:50:16.869Z,24.5
2018-07-02T12:51:16.900Z,24.8
2018-07-02T12:52:17.175Z,25.8
2018-07-02T12:53:16.434Z,24.9
2018-07-02T12:54:16.895Z,24.9
2018-07-02T12:55:17.173Z,24.9
2018-07-02T12:56:16.437Z,24.6
2018-07-02T12:57:16.716Z,25.1
2018-07-02T12:58:16.977Z,26.1
2018-07-02T12:59:17.239Z,26.5
2018-07-02T13:00:16.504Z,25.6
2018-07-02T13:01:16.544Z,25.1
2018-07-02T13:02:16.887Z,25.1
2018-07-02T13:03:17.148Z,24.9
2018-07-02T13:04:16.459Z,24.7
2018-07-02T13:05:16.765Z,24.7
2018-07-02T13:06:17.319Z,23.9
2018-07-02T13:07:16.581Z,24.1
2018-07-02T13:08:16.846Z,24.8
2018-07-02T13:09:17.113Z,24.8
2018-07-02T13:10:16.376Z,25.3
2018-07-02T13:11:16.425Z,27.2
2018-07-02T13:12:16.691Z,24.6
2018-07-02T13:13:16.944Z,24.9
2018-07-02T13:14:17.208Z,25.0
2018-07-02T13:15:16.477Z,24.6
2018-07-02T13:16:16.727Z,25.0
2018-07-02T13:17:17.029Z,25.0
2018-07-02T13:18:16.286Z,25.1